Time;durP1;ratioP1;P1;durP2;ratioP2;P2;SDS_P1;SDS_P2;PMS_P1;PMS_P2;Temp;Humidity;BMP_temperature;BMP_pressure;BME280_temperature;BME280_humidity;BME280_pressure;Samples;Min_cycle;Max_cycle;Signal;HPM_P1;HPM_P2
2021/07/30 00:02:22;;;;;;;;;4.00;4.00;;;;;21.97;46.75;100774.28;4998692;28;46206;-83
2021/07/30 00:04:48;;;;;;;;;6.00;4.50;;;;;21.95;46.21;100773.41;4999215;28;45331;-83
2021/07/30 00:07:13;;;;;;;;;5.00;4.25;;;;;21.94;46.76;100774.28;5005402;28;45655;-83
2021/07/30 00:09:39;;;;;;;;;4.75;3.75;;;;;21.91;46.79;100777.81;5017980;28;45404;-85
2021/07/30 00:12:05;;;;;;;;;3.00;3.00;;;;;21.89;46.56;100766.38;5015645;28;46040;-84
2021/07/30 00:14:32;;;;;;;;;5.00;4.00;;;;;21.83;46.77;100763.78;4997439;28;45417;-83
2021/07/30 00:16:58;;;;;;;;;5.00;4.25;;;;;21.84;47.08;100764.66;4996726;28;45487;-85
2021/07/30 00:19:24;;;;;;;;;4.00;4.00;;;;;21.82;46.89;100764.66;4999025;28;45380;-86
2021/07/30 00:21:50;;;;;;;;;5.50;4.25;;;;;21.81;47.12;100765.53;4998161;28;45476;-83
2021/07/30 00:24:16;;;;;;;;;5.25;4.25;;;;;21.80;47.05;100766.41;4998594;28;46259;-85
2021/07/30 00:26:42;;;;;;;;;7.00;5.00;;;;;21.78;47.32;100765.53;4997333;28;45405;-84
2021/07/30 00:29:07;;;;;;;;;6.00;5.00;;;;;21.76;47.80;100767.28;4997477;28;45385;-84
2021/07/30 00:31:33;;;;;;;;;3.25;3.25;;;;;21.74;47.24;100764.69;5011493;28;45865;-86
2021/07/30 00:33:58;;;;;;;;;4.00;4.00;;;;;21.69;47.34;100753.28;5017966;28;45321;-85
2021/07/30 00:36:24;;;;;;;;;5.25;5.25;;;;;21.70;47.16;100760.31;5018263;28;45422;-85
2021/07/30 00:38:50;;;;;;;;;4.25;4.25;;;;;21.68;47.10;100753.28;5018405;28;45701;-84
2021/07/30 00:41:15;;;;;;;;;5.50;3.75;;;;;21.66;46.93;100755.91;5020240;28;45516;-85
2021/07/30 00:43:41;;;;;;;;;8.25;5.50;;;;;21.65;47.30;100747.13;5017156;28;45360;-83
2021/07/30 00:46:07;;;;;;;;;5.50;5.50;;;;;21.63;46.68;100743.63;5011988;28;45362;-83
2021/07/30 00:48:33;;;;;;;;;5.00;4.50;;;;;21.63;46.89;100748.91;5018261;28;45328;-84
2021/07/30 00:50:59;;;;;;;;;7.00;5.50;;;;;21.61;47.18;100745.38;5017604;28;45496;-83
2021/07/30 00:53:26;;;;;;;;;4.00;4.00;;;;;21.59;46.95;100743.66;5016440;28;45820;-83
2021/07/30 00:55:53;;;;;;;;;4.00;4.00;;;;;21.59;46.78;100741.00;5017649;28;45401;-83
2021/07/30 00:58:20;;;;;;;;;3.00;1.25;;;;;21.56;47.07;100741.84;5018549;28;45430;-83
2021/07/30 01:00:45;;;;;;;;;4.25;3.50;;;;;21.51;46.67;100733.09;5018007;28;46056;-83
2021/07/30 01:03:11;;;;;;;;;4.25;3.00;;;;;21.49;46.77;100737.47;5010285;28;45478;-82
2021/07/30 01:05:37;;;;;;;;;6.00;5.00;;;;;21.47;47.03;100733.94;4997941;28;45306;-83
2021/07/30 01:08:05;;;;;;;;;6.25;4.00;;;;;21.45;47.02;100730.44;4997547;28;45528;-83
2021/07/30 01:10:30;;;;;;;;;4.25;4.25;;;;;21.42;47.02;100731.31;4997487;28;46479;-84
2021/07/30 01:12:56;;;;;;;;;3.25;3.25;;;;;21.42;47.06;100736.59;4995931;28;45491;-83
2021/07/30 01:15:23;;;;;;;;;6.00;3.75;;;;;21.42;46.89;100727.84;5007588;28;45344;-83
2021/07/30 01:17:49;;;;;;;;;6.00;3.75;;;;;21.45;47.01;100730.44;5018076;28;45265;-83
2021/07/30 01:20:15;;;;;;;;;4.00;3.25;;;;;21.42;46.67;100728.69;5016080;28;48462;-85
2021/07/30 01:22:59;;;;;;;;;4.00;3.50;;;;;21.42;46.76;100720.78;5013413;28;45277;-84
2021/07/30 01:25:27;;;;;;;;;6.25;4.00;;;;;21.39;46.87;100714.66;4996194;28;45367;-83
2021/07/30 01:27:54;;;;;;;;;3.25;3.25;;;;;21.39;46.96;100722.56;5010389;28;45427;-84
2021/07/30 01:30:22;;;;;;;;;4.00;4.00;;;;;21.34;47.22;100715.53;4997212;28;45417;-83
2021/07/30 01:32:48;;;;;;;;;3.50;2.75;;;;;21.35;46.94;100713.78;4997696;28;45756;-83
2021/07/30 01:35:14;;;;;;;;;4.50;4.50;;;;;21.35;46.64;100716.44;5001740;28;45306;-84
2021/07/30 01:37:40;;;;;;;;;5.00;5.00;;;;;21.33;46.72;100705.00;5017591;28;45378;-83
2021/07/30 01:40:07;;;;;;;;;6.00;3.75;;;;;21.31;46.75;100705.03;5016859;28;45565;-84
2021/07/30 01:42:32;;;;;;;;;5.00;5.00;;;;;21.28;46.83;100707.66;5016943;28;45253;-83
2021/07/30 01:44:58;;;;;;;;;5.00;4.25;;;;;21.30;47.12;100707.63;5016399;28;45457;-83
2021/07/30 01:47:25;;;;;;;;;3.25;3.25;;;;;21.28;47.07;100704.13;5005403;28;45340;-83
2021/07/30 01:49:51;;;;;;;;;4.25;3.00;;;;;21.26;47.16;100705.91;5015328;28;46243;-83
2021/07/30 01:52:18;;;;;;;;;5.00;5.00;;;;;21.25;47.49;100706.78;5016578;28;45491;-83
2021/07/30 01:54:44;;;;;;;;;4.00;4.00;;;;;21.23;47.48;100700.63;5015942;28;45337;-83
2021/07/30 01:57:10;;;;;;;;;6.50;5.00;;;;;21.19;47.76;100694.50;5018573;28;45936;-85
2021/07/30 01:59:36;;;;;;;;;4.00;4.00;;;;;21.18;47.07;100701.50;5016923;28;46163;-83
2021/07/30 02:02:02;;;;;;;;;3.75;3.75;;;;;21.19;47.14;100705.03;5014026;28;45759;-83
2021/07/30 02:04:28;;;;;;;;;6.75;5.00;;;;;21.22;47.67;100701.50;5016875;28;45297;-84
2021/07/30 02:06:53;;;;;;;;;3.75;3.00;;;;;21.24;47.56;100697.13;5011171;28;45469;-83
2021/07/30 02:09:19;;;;;;;;;5.00;5.00;;;;;21.25;46.85;100699.75;4996887;28;46125;-84
2021/07/30 02:11:51;;;;;;;;;5.75;4.25;;;;;21.25;47.12;100694.47;4995516;28;45394;-85
2021/07/30 02:14:24;;;;;;;;;5.25;4.25;;;;;21.26;47.04;100698.00;5013991;28;45428;-83
2021/07/30 02:16:55;;;;;;;;;5.00;4.00;;;;;21.22;47.02;100688.34;5001927;28;45578;-83
2021/07/30 02:19:22;;;;;;;;;3.50;3.50;;;;;21.21;47.45;100690.13;4995959;28;46361;-84
2021/07/30 02:21:50;;;;;;;;;5.75;4.00;;;;;21.21;47.04;100686.59;5017443;28;45431;-86
2021/07/30 02:24:16;;;;;;;;;4.25;4.25;;;;;21.18;47.19;100688.34;5019847;28;45425;-83
2021/07/30 02:26:41;;;;;;;;;6.00;4.00;;;;;21.16;47.00;100683.97;5019877;28;45672;-84
2021/07/30 02:29:07;;;;;;;;;4.75;4.75;;;;;21.17;47.38;100685.72;5016596;28;46124;-83
2021/07/30 02:31:34;;;;;;;;;5.00;5.00;;;;;21.14;47.57;100685.72;5015706;28;45256;-84
2021/07/30 02:33:59;;;;;;;;;2.75;2.75;;;;;21.12;47.07;100685.72;5016015;28;45297;-84
2021/07/30 02:36:25;;;;;;;;;4.00;4.00;;;;;21.14;47.30;100680.44;5016695;28;45375;-83
2021/07/30 02:38:51;;;;;;;;;5.00;4.00;;;;;21.14;47.10;100683.97;5015217;28;46107;-84
2021/07/30 02:41:17;;;;;;;;;3.00;3.00;;;;;21.17;47.13;100685.72;5016617;28;45324;-84
2021/07/30 02:43:44;;;;;;;;;3.75;3.75;;;;;21.19;47.18;100682.19;5004940;28;45288;-85
2021/07/30 02:46:10;;;;;;;;;4.00;3.50;;;;;21.20;47.10;100677.84;4994862;28;45355;-84
2021/07/30 02:48:35;;;;;;;;;4.00;4.00;;;;;21.23;47.54;100676.94;4996039;28;45957;-84
2021/07/30 02:51:02;;;;;;;;;4.00;4.00;;;;;21.22;47.32;100669.91;4996916;28;45424;-84
2021/07/30 02:53:28;;;;;;;;;4.25;4.25;;;;;21.19;47.34;100660.28;5013812;28;45269;-84
2021/07/30 02:55:54;;;;;;;;;4.00;4.00;;;;;21.23;47.58;100671.69;5016039;28;45600;-85
2021/07/30 02:58:19;;;;;;;;;4.25;4.25;;;;;21.20;47.60;100656.75;5016528;28;46243;-84
2021/07/30 03:00:45;;;;;;;;;5.50;5.50;;;;;21.22;47.10;100662.88;5009432;28;45258;-86
2021/07/30 03:03:11;;;;;;;;;0.50;0.50;;;;;21.19;47.19;100657.66;4995931;28;45361;-86
2021/07/30 03:05:36;;;;;;;;;4.50;4.50;;;;;21.17;47.72;100659.41;4996650;28;47213;-85
2021/07/30 03:08:02;;;;;;;;;5.00;4.00;;;;;21.19;47.89;100670.81;4996539;28;45500;-83
2021/07/30 03:10:28;;;;;;;;;4.50;4.00;;;;;21.18;47.53;100662.00;5015669;28;45452;-83
2021/07/30 03:12:53;;;;;;;;;4.50;4.50;;;;;21.20;47.20;100656.75;5015798;28;45285;-84
2021/07/30 03:15:19;;;;;;;;;4.00;4.00;;;;;21.18;47.35;100656.75;5014712;28;45498;-83
2021/07/30 03:17:44;;;;;;;;;4.00;4.00;;;;;21.18;47.19;100667.28;5014136;28;46103;-84
2021/07/30 03:20:10;;;;;;;;;5.25;5.00;;;;;21.19;46.99;100668.19;5000134;28;45407;-86
2021/07/30 03:22:36;;;;;;;;;5.25;4.25;;;;;21.17;47.10;100667.28;4995925;28;45316;-84
2021/07/30 03:25:02;;;;;;;;;4.75;4.75;;;;;21.15;47.41;100663.78;5010534;28;45336;-83
2021/07/30 03:27:28;;;;;;;;;4.50;4.50;;;;;21.11;47.34;100664.69;5015730;28;46050;-83
2021/07/30 03:29:53;;;;;;;;;3.75;3.50;;;;;21.04;47.39;100658.53;5013983;28;45246;-84
2021/07/30 03:32:19;;;;;;;;;4.25;3.00;;;;;21.01;47.55;100666.44;4996401;28;45412;-85
2021/07/30 03:34:48;;;;;;;;;5.75;4.75;;;;;20.98;47.62;100655.91;5006621;28;45634;-84
2021/07/30 03:37:14;;;;;;;;;5.00;5.00;;;;;20.96;47.98;100657.66;5014756;28;45554;-84
2021/07/30 03:39:40;;;;;;;;;5.00;5.00;;;;;20.91;47.78;100660.28;5002962;28;45581;-83
2021/07/30 03:42:07;;;;;;;;;7.00;4.00;;;;;20.86;48.25;100662.91;4996561;28;45672;-84
2021/07/30 03:44:33;;;;;;;;;5.00;5.00;;;;;20.85;48.19;100655.03;4997151;28;45606;-84
2021/07/30 03:46:58;;;;;;;;;4.00;4.00;;;;;20.84;48.14;100666.44;5002937;28;46411;-85
2021/07/30 03:49:24;;;;;;;;;5.50;4.25;;;;;20.77;48.85;100662.91;4997623;28;45379;-83
2021/07/30 03:51:50;;;;;;;;;3.00;3.00;;;;;20.72;48.61;100659.41;4997885;28;45366;-84
2021/07/30 03:54:17;;;;;;;;;5.50;5.00;;;;;20.66;49.11;100656.75;5003655;28;45245;-85
2021/07/30 03:56:43;;;;;;;;;5.00;4.75;;;;;20.64;48.77;100651.50;5008818;28;47701;-84
2021/07/30 03:59:09;;;;;;;;;5.50;4.50;;;;;20.62;49.22;100653.25;5018791;28;45435;-82
2021/07/30 04:01:35;;;;;;;;;4.75;4.75;;;;;20.57;48.89;100655.00;5000506;28;45391;-86
2021/07/30 04:04:01;;;;;;;;;6.25;4.75;;;;;20.50;49.17;100648.84;5003525;28;45513;-85
2021/07/30 04:06:27;;;;;;;;;4.75;4.00;;;;;20.46;50.02;100654.13;4999789;28;45434;-82
2021/07/30 04:08:53;;;;;;;;;4.00;4.00;;;;;20.40;50.04;100650.59;5004752;28;45332;-84
2021/07/30 04:11:19;;;;;;;;;3.50;3.50;;;;;20.43;49.77;100652.34;5015587;28;45383;-83
2021/07/30 04:13:48;;;;;;;;;6.50;4.25;;;;;20.38;50.02;100652.31;5014055;28;45281;-84
2021/07/30 04:16:13;;;;;;;;;7.00;5.00;;;;;20.38;50.12;100649.69;4998190;28;45463;-84
2021/07/30 04:18:39;;;;;;;;;5.75;4.00;;;;;20.33;50.49;100653.19;5006478;28;45331;-86
2021/07/30 04:21:08;;;;;;;;;5.00;4.25;;;;;20.26;50.74;100652.31;5016706;28;45392;-85
2021/07/30 04:23:35;;;;;;;;;4.00;4.00;;;;;20.24;50.45;100654.06;5018508;28;45395;-83
2021/07/30 04:26:01;;;;;;;;;4.00;4.00;;;;;20.23;50.55;100645.28;4998557;28;45480;-83
2021/07/30 04:28:27;;;;;;;;;4.25;4.25;;;;;20.24;51.24;100649.69;4998626;28;45640;-86
2021/07/30 04:30:52;;;;;;;;;5.00;4.25;;;;;20.21;51.02;100654.91;4998134;28;45523;-84
2021/07/30 04:33:18;;;;;;;;;4.25;4.00;;;;;20.21;51.32;100649.66;5000878;28;45245;-86
2021/07/30 04:35:44;;;;;;;;;3.25;3.25;;;;;20.19;50.76;100643.53;5017040;28;45323;-86
2021/07/30 04:38:10;;;;;;;;;3.00;2.50;;;;;20.22;50.50;100655.81;5017718;28;45391;-85
2021/07/30 04:40:40;;;;;;;;;8.25;4.50;;;;;20.23;51.45;100653.19;5017408;28;45326;-85
2021/07/30 04:43:06;;;;;;;;;3.25;3.00;;;;;20.21;50.78;100656.69;5016356;28;45543;-86
2021/07/30 04:45:34;;;;;;;;;4.00;4.00;;;;;20.18;51.22;100654.03;4999624;28;47722;-86
2021/07/30 04:48:00;;;;;;;;;4.00;4.00;;;;;20.17;51.27;100657.53;4997161;28;45411;-84
2021/07/30 04:50:26;;;;;;;;;6.00;4.00;;;;;20.14;51.37;100642.66;5016163;28;45380;-84
2021/07/30 04:52:55;;;;;;;;;3.25;3.25;;;;;20.15;51.49;100649.66;5007685;28;45598;-85
2021/07/30 04:55:21;;;;;;;;;5.25;5.00;;;;;20.14;51.09;100652.31;5014422;28;45583;-85
2021/07/30 04:57:46;;;;;;;;;8.00;6.00;;;;;20.04;50.99;100641.72;5017638;28;45296;-84
2021/07/30 05:00:12;;;;;;;;;3.75;3.75;;;;;20.04;50.91;100648.75;5004851;28;45472;-83
2021/07/30 05:02:38;;;;;;;;;5.25;5.00;;;;;20.02;51.08;100651.38;5016267;28;45323;-83
2021/07/30 05:05:04;;;;;;;;;6.25;5.00;;;;;20.04;50.77;100646.13;5015312;28;45530;-84
2021/07/30 05:07:30;;;;;;;;;4.75;3.75;;;;;20.06;50.86;100640.00;5016688;28;45910;-83
2021/07/30 05:09:55;;;;;;;;;6.00;6.00;;;;;20.10;51.10;100651.38;5017345;28;45794;-85
2021/07/30 05:12:21;;;;;;;;;4.50;4.50;;;;;20.09;50.39;100645.25;5015766;28;45586;-85
2021/07/30 05:14:46;;;;;;;;;5.50;3.50;;;;;20.10;50.60;100649.66;5017571;28;45478;-86
2021/07/30 05:17:12;;;;;;;;;6.50;5.00;;;;;20.13;50.06;100647.91;4998949;28;45385;-86
2021/07/30 05:19:38;;;;;;;;;5.75;5.50;;;;;20.14;50.77;100649.66;5003918;28;45372;-86
2021/07/30 05:22:03;;;;;;;;;4.50;4.50;;;;;20.15;50.24;100648.75;5015624;28;45628;-86
2021/07/30 05:24:29;;;;;;;;;6.00;5.00;;;;;20.14;50.65;100649.66;5009746;28;45337;-85
2021/07/30 05:26:55;;;;;;;;;6.25;4.75;;;;;20.15;50.40;100651.41;4997507;28;45336;-86
2021/07/30 05:29:20;;;;;;;;;7.00;5.75;;;;;20.15;50.24;100646.13;5000432;28;45427;-87
2021/07/30 05:31:46;;;;;;;;;5.25;4.25;;;;;20.12;49.97;100649.66;4999019;28;45486;-85
2021/07/30 05:34:11;;;;;;;;;4.00;4.00;;;;;20.12;50.00;100652.28;4997578;28;45389;-86
2021/07/30 05:36:37;;;;;;;;;6.25;5.25;;;;;20.07;50.23;100647.00;4997677;28;45339;-85
2021/07/30 05:39:02;;;;;;;;;4.25;4.00;;;;;20.06;50.02;100647.88;5005329;28;45797;-87
2021/07/30 05:41:28;;;;;;;;;3.75;3.00;;;;;20.08;50.17;100643.50;5008173;28;45427;-84
2021/07/30 05:43:54;;;;;;;;;3.50;3.50;;;;;20.12;50.11;100643.53;5007766;28;45483;-86
2021/07/30 05:46:20;;;;;;;;;4.00;4.00;;;;;20.11;49.99;100650.50;5012804;28;45343;-86
2021/07/30 05:48:46;;;;;;;;;4.25;3.50;;;;;20.12;50.84;100647.03;5009897;28;45363;-85
2021/07/30 05:51:12;;;;;;;;;4.00;4.00;;;;;20.14;50.67;100647.91;5012413;28;45377;-87
2021/07/30 05:53:39;;;;;;;;;3.25;3.25;;;;;20.16;50.69;100640.91;5015651;28;46543;-87
2021/07/30 05:56:04;;;;;;;;;4.00;4.00;;;;;20.18;50.53;100631.28;5014706;28;45710;-85
2021/07/30 05:58:33;;;;;;;;;4.25;3.00;;;;;20.20;50.55;100629.50;4996374;28;45430;-85
2021/07/30 06:01:00;;;;;;;;;5.25;4.00;;;;;20.26;50.97;100637.41;5001022;28;45564;-89
2021/07/30 06:03:25;;;;;;;;;6.00;5.50;;;;;20.26;50.77;100637.41;5013349;28;45479;-88
2021/07/30 06:05:51;;;;;;;;;4.75;3.25;;;;;20.30;51.19;100626.91;5017376;28;45456;-85
2021/07/30 06:08:17;;;;;;;;;6.00;4.00;;;;;20.32;50.84;100630.41;5001110;28;45527;-83
2021/07/30 06:10:43;;;;;;;;;4.00;4.00;;;;;20.36;51.46;100622.53;5007378;28;45519;-82
2021/07/30 06:13:08;;;;;;;;;5.00;3.50;;;;;20.39;50.88;100621.66;5013739;28;46818;-83
2021/07/30 06:15:35;;;;;;;;;3.00;3.00;;;;;20.39;51.47;100616.41;5018338;28;45371;-79
2021/07/30 06:18:03;;;;;;;;;5.75;4.00;;;;;20.37;51.06;100624.28;5013269;28;45217;-80
2021/07/30 06:20:30;;;;;;;;;5.00;3.25;;;;;20.36;51.85;100613.78;5013043;28;45770;-82
2021/07/30 06:22:56;;;;;;;;;5.75;4.00;;;;;20.42;52.02;100616.38;5019500;28;45927;-81
2021/07/30 06:25:21;;;;;;;;;5.25;3.75;;;;;20.45;51.79;100615.53;5014572;28;45263;-79
2021/07/30 06:27:47;;;;;;;;;3.75;2.50;;;;;20.45;51.57;100618.16;5015244;28;45530;-81
2021/07/30 06:30:13;;;;;;;;;4.25;4.00;;;;;20.46;51.83;100609.41;5009518;28;45976;-89
2021/07/30 06:32:39;;;;;;;;;4.00;4.00;;;;;20.51;52.12;100612.91;5014495;28;45435;-79
2021/07/30 06:35:05;;;;;;;;;4.00;4.00;;;;;20.52;51.48;100612.03;5013407;28;46142;-79
2021/07/30 06:37:35;;;;;;;;;4.00;4.00;;;;;20.50;51.64;100603.25;5014418;28;45434;-79
2021/07/30 06:40:03;;;;;;;;;6.50;4.50;;;;;20.52;52.26;100610.25;5012772;28;45603;-80
2021/07/30 06:42:28;;;;;;;;;4.25;4.00;;;;;20.59;51.26;100605.88;4997385;28;45422;-81
2021/07/30 06:44:54;;;;;;;;;4.50;4.50;;;;;20.64;50.95;100605.88;5002037;28;45914;-80
2021/07/30 06:47:22;;;;;;;;;5.50;4.00;;;;;20.69;51.18;100601.50;4995600;28;45340;-79
2021/07/30 06:49:48;;;;;;;;;6.25;5.75;;;;;20.73;50.96;100604.13;5012159;28;45371;-85
2021/07/30 06:52:14;;;;;;;;;4.00;4.00;;;;;20.77;51.51;100604.19;5018095;28;45675;-83
2021/07/30 06:54:41;;;;;;;;;3.00;3.00;;;;;20.80;50.81;100605.03;5013954;28;45515;-85
2021/07/30 06:57:07;;;;;;;;;4.50;4.50;;;;;20.81;50.90;100604.16;5021773;28;45403;-87
2021/07/30 06:59:33;;;;;;;;;4.25;3.25;;;;;20.80;51.42;100602.41;5017122;28;45281;-82
2021/07/30 07:02:02;;;;;;;;;4.00;3.25;;;;;20.79;51.14;100592.75;5015710;28;45947;-84
2021/07/30 07:04:28;;;;;;;;;4.00;4.00;;;;;20.83;50.99;100601.53;5021361;28;45707;-83
2021/07/30 07:06:54;;;;;;;;;4.75;4.75;;;;;20.81;51.76;100598.00;5016443;28;45407;-87
2021/07/30 07:09:20;;;;;;;;;4.75;4.00;;;;;20.86;51.13;100591.88;5026525;28;45528;-96
2021/07/30 07:11:46;;;;;;;;;3.25;3.00;;;;;20.97;51.25;100596.25;5026552;28;45374;-89
2021/07/30 07:14:12;;;;;;;;;5.50;4.25;;;;;21.04;51.12;100590.09;5008526;28;45333;-83
2021/07/30 07:16:40;;;;;;;;;3.00;3.00;;;;;21.16;51.19;100597.97;5017552;28;45273;-83
2021/07/30 07:19:10;;;;;;;;;6.25;4.50;;;;;21.23;51.69;100592.69;5016684;28;45298;-84
2021/07/30 07:21:37;;;;;;;;;4.75;4.50;;;;;21.27;51.86;100597.06;5017121;28;46005;-82
2021/07/30 07:24:03;;;;;;;;;5.25;4.00;;;;;21.30;51.48;100591.78;5022094;28;45659;-88
2021/07/30 07:26:29;;;;;;;;;3.25;3.25;;;;;21.34;51.64;100591.75;5013750;28;45337;-89
2021/07/30 07:28:54;;;;;;;;;3.75;3.75;;;;;21.44;51.98;100610.16;5002589;28;45297;-85
2021/07/30 07:31:20;;;;;;;;;3.00;3.00;;;;;21.40;51.75;100608.44;5000798;28;47709;-86
2021/07/30 07:33:46;;;;;;;;;4.75;3.50;;;;;21.41;52.12;100610.19;5001090;28;45246;-91
2021/07/30 07:36:11;;;;;;;;;5.00;3.50;;;;;21.37;52.22;100609.34;5003721;28;45320;-91
2021/07/30 07:38:37;;;;;;;;;6.00;6.00;;;;;21.35;52.36;100608.44;4999732;28;45598;-84
2021/07/30 07:41:03;;;;;;;;;5.00;4.25;;;;;21.32;52.86;100595.28;5003262;28;45477;-82
2021/07/30 07:43:28;;;;;;;;;6.00;6.00;;;;;21.33;53.01;100604.94;5018175;28;45387;-83
2021/07/30 07:45:54;;;;;;;;;5.00;3.50;;;;;21.37;53.11;100601.44;5016916;28;45544;-81
2021/07/30 07:48:20;;;;;;;;;4.00;4.00;;;;;21.45;52.77;100599.63;5003788;28;45584;-83
2021/07/30 07:50:46;;;;;;;;;7.25;5.00;;;;;21.47;52.65;100600.50;5018565;28;45468;-90
2021/07/30 07:53:15;;;;;;;;;7.25;5.00;;;;;21.45;53.19;100596.09;5017980;28;45501;-87
2021/07/30 07:55:41;;;;;;;;;6.25;5.25;;;;;21.43;53.32;100604.03;5019341;28;45373;-86
2021/07/30 07:58:07;;;;;;;;;3.00;3.00;;;;;21.36;52.80;100596.16;5016469;28;45535;-83
2021/07/30 08:00:33;;;;;;;;;3.75;3.75;;;;;21.31;53.42;100594.41;4998534;28;45989;-84
2021/07/30 08:02:59;;;;;;;;;6.00;4.00;;;;;21.22;54.26;100589.16;5001048;28;45400;-85
2021/07/30 08:05:24;;;;;;;;;5.00;4.00;;;;;21.13;53.97;100570.75;5022718;28;45320;-89
2021/07/30 08:07:50;;;;;;;;;5.00;5.00;;;;;21.07;54.89;100574.28;5009089;28;45568;-88
2021/07/30 08:10:17;;;;;;;;;7.00;5.50;;;;;21.07;54.38;100565.53;5026742;28;47721;-93
2021/07/30 08:12:42;;;;;;;;;4.00;4.00;;;;;21.03;55.28;100570.78;5008429;28;45341;-89
2021/07/30 08:15:08;;;;;;;;;5.00;3.25;;;;;21.15;55.57;100574.28;5003724;28;45441;-87
2021/07/30 08:17:38;;;;;;;;;6.00;5.75;;;;;21.29;54.78;100571.59;5001759;28;45440;-87
2021/07/30 08:20:05;;;;;;;;;4.25;3.50;;;;;21.45;54.88;100575.03;5017631;28;46332;-87
2021/07/30 08:22:31;;;;;;;;;4.25;4.25;;;;;21.54;54.78;100582.03;5019475;28;45752;-88
2021/07/30 08:24:56;;;;;;;;;3.75;3.75;;;;;21.61;54.80;100566.22;5017361;28;45351;-86
2021/07/30 08:27:22;;;;;;;;;5.00;5.00;;;;;21.67;54.38;100561.81;5004230;28;45486;-87
2021/07/30 08:29:47;;;;;;;;;4.50;4.50;;;;;21.70;54.82;100562.69;4999483;28;45710;-87
2021/07/30 08:32:14;;;;;;;;;2.25;2.25;;;;;21.80;54.14;100566.13;5001838;28;45344;-86
2021/07/30 08:34:40;;;;;;;;;4.50;3.75;;;;;21.90;54.09;100564.34;5005146;28;45351;-89
2021/07/30 08:37:07;;;;;;;;;3.00;3.00;;;;;21.88;54.33;100566.09;5003824;28;45250;-87
2021/07/30 08:39:33;;;;;;;;;3.00;3.00;;;;;21.84;54.51;100580.16;4999330;28;45520;-83
2021/07/30 08:42:00;;;;;;;;;4.25;4.00;;;;;21.82;55.11;100582.81;5017595;28;45891;-81
2021/07/30 08:44:27;;;;;;;;;5.00;3.75;;;;;21.77;55.12;100568.78;5018697;28;45407;-83
2021/07/30 08:46:55;;;;;;;;;4.75;3.00;;;;;21.79;54.91;100575.81;5018590;28;45815;-85
2021/07/30 08:49:22;;;;;;;;;4.00;4.00;;;;;21.85;55.16;100568.75;5015216;28;46973;-84
2021/07/30 08:52:06;;;;;;;;;3.00;3.00;;;;;21.92;55.24;100555.53;5017172;28;46062;-82
2021/07/30 08:54:32;;;;;;;;;4.00;4.00;;;;;21.99;54.87;100560.75;5017505;28;45383;-87
2021/07/30 08:56:57;;;;;;;;;3.00;3.00;;;;;22.01;54.88;100565.13;5018098;28;45482;-82
2021/07/30 08:59:23;;;;;;;;;3.25;3.25;;;;;22.04;54.88;100558.97;5014373;28;45393;-84
2021/07/30 09:01:53;;;;;;;;;4.00;2.00;;;;;22.07;54.80;100554.53;5017742;28;45453;-83
2021/07/30 09:04:26;;;;;;;;;2.75;2.00;;;;;22.10;54.65;100551.00;5021101;28;45439;-80
2021/07/30 09:06:54;;;;;;;;;3.00;2.00;;;;;22.18;54.42;100570.28;5018538;28;45426;-83
2021/07/30 09:09:19;;;;;;;;;2.00;2.00;;;;;22.18;54.51;100549.19;5005211;28;45550;-85
2021/07/30 09:11:45;;;;;;;;;3.00;3.00;;;;;22.20;54.95;100559.72;5006569;28;45347;-81
2021/07/30 09:14:11;;;;;;;;;2.75;2.75;;;;;22.28;54.59;100552.63;5008033;28;45391;-81
2021/07/30 09:16:51;;;;;;;;;2.00;1.00;;;;;22.33;54.42;100558.75;5017934;28;45515;-84
2021/07/30 09:19:17;;;;;;;;;4.25;4.25;;;;;22.41;54.69;100543.75;5006281;28;46806;-85
2021/07/30 09:21:43;;;;;;;;;2.25;2.25;;;;;22.59;54.34;100551.53;4999219;28;45756;-85
2021/07/30 09:24:11;;;;;;;;;4.00;2.50;;;;;22.67;54.18;100536.50;5004855;28;45324;-81
2021/07/30 09:26:39;;;;;;;;;2.75;2.75;;;;;22.69;54.08;100547.91;5017585;28;45591;-85
